sensor_id;sensor_type;location;lat;lon;timestamp;P1;durP1;ratioP1;P2;durP2;ratioP2
74293;SDS011;64044;59.904;10.738;2023-12-04T00:01:12;14.40;;;5.18;;
74293;SDS011;64044;59.904;10.738;2023-12-04T00:03:38;13.63;;;5.97;;
74293;SDS011;64044;59.904;10.738;2023-12-04T00:06:04;9.15;;;4.80;;
74293;SDS011;64044;59.904;10.738;2023-12-04T00:08:31;13.15;;;5.13;;
74293;SDS011;64044;59.904;10.738;2023-12-04T00:10:57;12.63;;;5.65;;
74293;SDS011;64044;59.904;10.738;2023-12-04T00:13:23;11.77;;;5.65;;
74293;SDS011;64044;59.904;10.738;2023-12-04T00:15:48;12.73;;;4.97;;
74293;SDS011;64044;59.904;10.738;2023-12-04T00:18:14;11.30;;;5.10;;
74293;SDS011;64044;59.904;10.738;2023-12-04T00:20:40;8.85;;;4.55;;
74293;SDS011;64044;59.904;10.738;2023-12-04T00:23:06;7.78;;;4.30;;
74293;SDS011;64044;59.904;10.738;2023-12-04T00:25:32;10.68;;;4.60;;
74293;SDS011;64044;59.904;10.738;2023-12-04T00:27:57;9.20;;;4.70;;
74293;SDS011;64044;59.904;10.738;2023-12-04T00:30:23;13.13;;;4.97;;
74293;SDS011;64044;59.904;10.738;2023-12-04T00:32:49;11.18;;;5.63;;
74293;SDS011;64044;59.904;10.738;2023-12-04T00:35:14;11.95;;;5.72;;
74293;SDS011;64044;59.904;10.738;2023-12-04T00:37:40;9.00;;;4.32;;
74293;SDS011;64044;59.904;10.738;2023-12-04T00:40:06;10.45;;;4.57;;
74293;SDS011;64044;59.904;10.738;2023-12-04T00:42:32;9.40;;;4.75;;
74293;SDS011;64044;59.904;10.738;2023-12-04T00:44:58;10.00;;;4.40;;
74293;SDS011;64044;59.904;10.738;2023-12-04T00:47:24;13.55;;;5.65;;
74293;SDS011;64044;59.904;10.738;2023-12-04T00:49:50;10.23;;;4.95;;
74293;SDS011;64044;59.904;10.738;2023-12-04T00:52:15;12.18;;;5.50;;
74293;SDS011;64044;59.904;10.738;2023-12-04T00:54:41;9.93;;;4.97;;
74293;SDS011;64044;59.904;10.738;2023-12-04T00:57:08;12.35;;;5.47;;
74293;SDS011;64044;59.904;10.738;2023-12-04T00:59:34;12.77;;;5.97;;
74293;SDS011;64044;59.904;10.738;2023-12-04T01:02:00;9.25;;;3.83;;
74293;SDS011;64044;59.904;10.738;2023-12-04T01:04:26;13.60;;;5.05;;
74293;SDS011;64044;59.904;10.738;2023-12-04T01:06:52;12.23;;;5.38;;
74293;SDS011;64044;59.904;10.738;2023-12-04T01:09:18;6.78;;;3.53;;
74293;SDS011;64044;59.904;10.738;2023-12-04T01:11:49;12.80;;;5.07;;
74293;SDS011;64044;59.904;10.738;2023-12-04T01:14:17;9.93;;;4.15;;
74293;SDS011;64044;59.904;10.738;2023-12-04T01:16:42;9.18;;;4.55;;
74293;SDS011;64044;59.904;10.738;2023-12-04T01:19:08;9.25;;;4.43;;
74293;SDS011;64044;59.904;10.738;2023-12-04T01:21:34;8.45;;;4.10;;
74293;SDS011;64044;59.904;10.738;2023-12-04T01:23:59;10.07;;;4.35;;
74293;SDS011;64044;59.904;10.738;2023-12-04T01:26:25;6.70;;;3.53;;
74293;SDS011;64044;59.904;10.738;2023-12-04T01:28:51;6.78;;;3.33;;
74293;SDS011;64044;59.904;10.738;2023-12-04T01:31:17;5.30;;;3.00;;
74293;SDS011;64044;59.904;10.738;2023-12-04T01:33:42;7.03;;;4.03;;
74293;SDS011;64044;59.904;10.738;2023-12-04T01:36:08;5.43;;;2.67;;
74293;SDS011;64044;59.904;10.738;2023-12-04T01:38:34;7.30;;;3.58;;
74293;SDS011;64044;59.904;10.738;2023-12-04T01:41:00;8.13;;;4.15;;
74293;SDS011;64044;59.904;10.738;2023-12-04T01:43:25;20.02;;;4.07;;
74293;SDS011;64044;59.904;10.738;2023-12-04T01:45:53;8.80;;;3.58;;
74293;SDS011;64044;59.904;10.738;2023-12-04T01:48:19;6.18;;;3.05;;
74293;SDS011;64044;59.904;10.738;2023-12-04T01:50:45;5.95;;;3.38;;
74293;SDS011;64044;59.904;10.738;2023-12-04T01:53:11;6.85;;;3.63;;
74293;SDS011;64044;59.904;10.738;2023-12-04T01:55:37;7.90;;;3.20;;
74293;SDS011;64044;59.904;10.738;2023-12-04T01:58:03;5.43;;;2.78;;
74293;SDS011;64044;59.904;10.738;2023-12-04T02:00:30;6.13;;;3.20;;
74293;SDS011;64044;59.904;10.738;2023-12-04T02:02:57;6.82;;;3.35;;
74293;SDS011;64044;59.904;10.738;2023-12-04T02:05:24;5.32;;;3.03;;
74293;SDS011;64044;59.904;10.738;2023-12-04T02:07:53;5.45;;;3.33;;
74293;SDS011;64044;59.904;10.738;2023-12-04T02:10:19;7.63;;;3.20;;
74293;SDS011;64044;59.904;10.738;2023-12-04T02:12:44;5.18;;;3.20;;
74293;SDS011;64044;59.904;10.738;2023-12-04T02:15:10;10.35;;;3.33;;
74293;SDS011;64044;59.904;10.738;2023-12-04T02:17:36;6.75;;;3.53;;
74293;SDS011;64044;59.904;10.738;2023-12-04T02:20:04;6.15;;;3.30;;
74293;SDS011;64044;59.904;10.738;2023-12-04T02:22:30;5.85;;;3.40;;
74293;SDS011;64044;59.904;10.738;2023-12-04T02:24:56;5.35;;;3.17;;
74293;SDS011;64044;59.904;10.738;2023-12-04T02:27:28;4.47;;;2.72;;
74293;SDS011;64044;59.904;10.738;2023-12-04T02:29:59;5.32;;;3.20;;
74293;SDS011;64044;59.904;10.738;2023-12-04T02:32:30;5.72;;;3.17;;
74293;SDS011;64044;59.904;10.738;2023-12-04T02:34:59;4.57;;;2.60;;
74293;SDS011;64044;59.904;10.738;2023-12-04T02:39:55;5.18;;;2.05;;
74293;SDS011;64044;59.904;10.738;2023-12-04T02:42:24;5.72;;;2.40;;
74293;SDS011;64044;59.904;10.738;2023-12-04T02:44:50;3.65;;;2.15;;
74293;SDS011;64044;59.904;10.738;2023-12-04T02:47:17;3.50;;;1.88;;
74293;SDS011;64044;59.904;10.738;2023-12-04T02:49:43;4.20;;;2.30;;
74293;SDS011;64044;59.904;10.738;2023-12-04T02:52:08;3.22;;;2.17;;
74293;SDS011;64044;59.904;10.738;2023-12-04T02:54:34;3.45;;;2.00;;
74293;SDS011;64044;59.904;10.738;2023-12-04T02:57:00;5.50;;;2.65;;
74293;SDS011;64044;59.904;10.738;2023-12-04T02:59:26;3.53;;;2.15;;
74293;SDS011;64044;59.904;10.738;2023-12-04T03:01:51;3.70;;;2.00;;
74293;SDS011;64044;59.904;10.738;2023-12-04T03:04:18;3.28;;;2.00;;
74293;SDS011;64044;59.904;10.738;2023-12-04T03:06:44;4.25;;;2.20;;
74293;SDS011;64044;59.904;10.738;2023-12-04T03:09:10;4.38;;;2.22;;
74293;SDS011;64044;59.904;10.738;2023-12-04T03:11:39;5.60;;;2.72;;
74293;SDS011;64044;59.904;10.738;2023-12-04T03:14:05;5.32;;;2.80;;
74293;SDS011;64044;59.904;10.738;2023-12-04T03:16:31;7.05;;;2.40;;
74293;SDS011;64044;59.904;10.738;2023-12-04T03:18:57;3.15;;;2.00;;
74293;SDS011;64044;59.904;10.738;2023-12-04T03:21:23;3.67;;;2.33;;
74293;SDS011;64044;59.904;10.738;2023-12-04T03:23:49;3.70;;;2.30;;
74293;SDS011;64044;59.904;10.738;2023-12-04T03:26:14;7.32;;;2.92;;
74293;SDS011;64044;59.904;10.738;2023-12-04T03:28:40;6.45;;;2.92;;
74293;SDS011;64044;59.904;10.738;2023-12-04T03:31:06;4.20;;;2.67;;
74293;SDS011;64044;59.904;10.738;2023-12-04T03:33:32;4.25;;;2.70;;
74293;SDS011;64044;59.904;10.738;2023-12-04T03:35:59;5.03;;;2.75;;
74293;SDS011;64044;59.904;10.738;2023-12-04T03:38:25;3.75;;;2.40;;
74293;SDS011;64044;59.904;10.738;2023-12-04T03:40:51;6.55;;;3.17;;
74293;SDS011;64044;59.904;10.738;2023-12-04T03:43:16;4.38;;;2.55;;
74293;SDS011;64044;59.904;10.738;2023-12-04T03:45:42;3.90;;;2.42;;
74293;SDS011;64044;59.904;10.738;2023-12-04T03:48:08;4.55;;;3.15;;
74293;SDS011;64044;59.904;10.738;2023-12-04T03:50:34;4.75;;;2.40;;
74293;SDS011;64044;59.904;10.738;2023-12-04T03:52:59;5.03;;;2.47;;
74293;SDS011;64044;59.904;10.738;2023-12-04T03:55:25;5.32;;;2.30;;
74293;SDS011;64044;59.904;10.738;2023-12-04T03:57:52;4.97;;;2.35;;
74293;SDS011;64044;59.904;10.738;2023-12-04T04:00:18;5.10;;;2.65;;
74293;SDS011;64044;59.904;10.738;2023-12-04T04:02:44;3.92;;;2.20;;
74293;SDS011;64044;59.904;10.738;2023-12-04T04:05:10;3.05;;;2.25;;
74293;SDS011;64044;59.904;10.738;2023-12-04T04:07:36;3.53;;;2.45;;
74293;SDS011;64044;59.904;10.738;2023-12-04T04:10:02;5.10;;;2.13;;
74293;SDS011;64044;59.904;10.738;2023-12-04T04:12:29;4.05;;;2.42;;
74293;SDS011;64044;59.904;10.738;2023-12-04T04:14:55;4.60;;;2.47;;
74293;SDS011;64044;59.904;10.738;2023-12-04T04:17:22;4.78;;;2.60;;
74293;SDS011;64044;59.904;10.738;2023-12-04T04:19:50;3.85;;;2.22;;
74293;SDS011;64044;59.904;10.738;2023-12-04T04:22:16;4.90;;;2.58;;
74293;SDS011;64044;59.904;10.738;2023-12-04T04:24:42;4.95;;;2.15;;
74293;SDS011;64044;59.904;10.738;2023-12-04T04:27:08;4.57;;;2.38;;
74293;SDS011;64044;59.904;10.738;2023-12-04T04:29:33;6.13;;;2.22;;
74293;SDS011;64044;59.904;10.738;2023-12-04T04:31:59;4.43;;;2.45;;
74293;SDS011;64044;59.904;10.738;2023-12-04T04:34:25;3.35;;;2.17;;
74293;SDS011;64044;59.904;10.738;2023-12-04T04:36:51;6.07;;;2.40;;
74293;SDS011;64044;59.904;10.738;2023-12-04T04:39:16;4.40;;;2.20;;
74293;SDS011;64044;59.904;10.738;2023-12-04T04:41:42;5.50;;;1.92;;
74293;SDS011;64044;59.904;10.738;2023-12-04T04:44:09;2.88;;;1.85;;
74293;SDS011;64044;59.904;10.738;2023-12-04T04:46:35;5.05;;;2.63;;
74293;SDS011;64044;59.904;10.738;2023-12-04T04:49:01;3.95;;;2.05;;
74293;SDS011;64044;59.904;10.738;2023-12-04T04:51:28;4.28;;;2.17;;
74293;SDS011;64044;59.904;10.738;2023-12-04T04:53:56;4.55;;;2.17;;
74293;SDS011;64044;59.904;10.738;2023-12-04T04:56:22;5.63;;;2.22;;
74293;SDS011;64044;59.904;10.738;2023-12-04T04:58:47;5.07;;;2.33;;
74293;SDS011;64044;59.904;10.738;2023-12-04T05:01:14;3.80;;;2.42;;
74293;SDS011;64044;59.904;10.738;2023-12-04T05:03:40;3.83;;;2.10;;
74293;SDS011;64044;59.904;10.738;2023-12-04T05:06:05;3.03;;;2.22;;
74293;SDS011;64044;59.904;10.738;2023-12-04T05:08:32;5.22;;;2.20;;
74293;SDS011;64044;59.904;10.738;2023-12-04T05:10:58;4.45;;;2.22;;
74293;SDS011;64044;59.904;10.738;2023-12-04T05:13:23;4.15;;;2.22;;
74293;SDS011;64044;59.904;10.738;2023-12-04T05:15:49;4.97;;;2.47;;
74293;SDS011;64044;59.904;10.738;2023-12-04T05:18:15;4.28;;;2.25;;
74293;SDS011;64044;59.904;10.738;2023-12-04T05:20:40;4.97;;;2.80;;
74293;SDS011;64044;59.904;10.738;2023-12-04T05:23:06;5.05;;;2.42;;
74293;SDS011;64044;59.904;10.738;2023-12-04T05:25:32;5.68;;;2.40;;
74293;SDS011;64044;59.904;10.738;2023-12-04T05:27:58;6.68;;;2.85;;
74293;SDS011;64044;59.904;10.738;2023-12-04T05:30:23;3.55;;;2.47;;
74293;SDS011;64044;59.904;10.738;2023-12-04T05:32:49;6.82;;;2.33;;
74293;SDS011;64044;59.904;10.738;2023-12-04T05:35:15;11.07;;;3.03;;
74293;SDS011;64044;59.904;10.738;2023-12-04T05:37:42;5.97;;;2.88;;
74293;SDS011;64044;59.904;10.738;2023-12-04T05:40:08;4.22;;;2.30;;
74293;SDS011;64044;59.904;10.738;2023-12-04T05:42:36;5.80;;;2.75;;
74293;SDS011;64044;59.904;10.738;2023-12-04T05:45:02;7.32;;;2.88;;
74293;SDS011;64044;59.904;10.738;2023-12-04T05:47:28;5.68;;;3.03;;
74293;SDS011;64044;59.904;10.738;2023-12-04T05:49:53;7.45;;;4.20;;
74293;SDS011;64044;59.904;10.738;2023-12-04T05:52:20;8.02;;;2.60;;
74293;SDS011;64044;59.904;10.738;2023-12-04T05:54:45;6.22;;;2.75;;
74293;SDS011;64044;59.904;10.738;2023-12-04T05:57:11;4.82;;;2.65;;
74293;SDS011;64044;59.904;10.738;2023-12-04T05:59:37;4.45;;;2.55;;
74293;SDS011;64044;59.904;10.738;2023-12-04T06:02:03;6.28;;;2.92;;
74293;SDS011;64044;59.904;10.738;2023-12-04T06:04:29;10.05;;;3.80;;
74293;SDS011;64044;59.904;10.738;2023-12-04T06:06:54;7.07;;;3.08;;
74293;SDS011;64044;59.904;10.738;2023-12-04T06:09:20;4.80;;;2.53;;
74293;SDS011;64044;59.904;10.738;2023-12-04T06:11:46;8.27;;;3.33;;
74293;SDS011;64044;59.904;10.738;2023-12-04T06:14:12;9.02;;;3.42;;
74293;SDS011;64044;59.904;10.738;2023-12-04T06:16:38;5.55;;;2.72;;
74293;SDS011;64044;59.904;10.738;2023-12-04T06:19:04;6.40;;;3.20;;
74293;SDS011;64044;59.904;10.738;2023-12-04T06:21:30;9.98;;;3.08;;
74293;SDS011;64044;59.904;10.738;2023-12-04T06:23:56;6.72;;;3.53;;
74293;SDS011;64044;59.904;10.738;2023-12-04T06:26:22;4.60;;;2.90;;
74293;SDS011;64044;59.904;10.738;2023-12-04T06:28:48;4.88;;;3.17;;
74293;SDS011;64044;59.904;10.738;2023-12-04T06:31:14;5.85;;;2.70;;
74293;SDS011;64044;59.904;10.738;2023-12-04T06:33:40;5.40;;;2.95;;
74293;SDS011;64044;59.904;10.738;2023-12-04T06:36:07;7.38;;;3.25;;
74293;SDS011;64044;59.904;10.738;2023-12-04T06:38:33;6.20;;;3.08;;
74293;SDS011;64044;59.904;10.738;2023-12-04T06:41:05;7.18;;;2.97;;
74293;SDS011;64044;59.904;10.738;2023-12-04T06:43:31;4.47;;;2.70;;
74293;SDS011;64044;59.904;10.738;2023-12-04T06:45:58;8.40;;;3.38;;
74293;SDS011;64044;59.904;10.738;2023-12-04T06:48:24;8.93;;;3.17;;
74293;SDS011;64044;59.904;10.738;2023-12-04T06:50:50;5.53;;;2.97;;
74293;SDS011;64044;59.904;10.738;2023-12-04T06:53:16;7.38;;;3.08;;
74293;SDS011;64044;59.904;10.738;2023-12-04T06:55:42;6.15;;;2.90;;
74293;SDS011;64044;59.904;10.738;2023-12-04T06:58:07;4.65;;;2.45;;
74293;SDS011;64044;59.904;10.738;2023-12-04T07:00:33;11.82;;;3.35;;
74293;SDS011;64044;59.904;10.738;2023-12-04T07:02:59;5.28;;;3.15;;
74293;SDS011;64044;59.904;10.738;2023-12-04T07:05:25;7.57;;;3.15;;
74293;SDS011;64044;59.904;10.738;2023-12-04T07:07:50;5.93;;;2.80;;
74293;SDS011;64044;59.904;10.738;2023-12-04T07:10:16;12.30;;;2.88;;
74293;SDS011;64044;59.904;10.738;2023-12-04T07:15:33;5.15;;;2.53;;
74293;SDS011;64044;59.904;10.738;2023-12-04T07:17:59;8.07;;;3.22;;
74293;SDS011;64044;59.904;10.738;2023-12-04T07:20:25;7.53;;;3.47;;
74293;SDS011;64044;59.904;10.738;2023-12-04T07:22:51;7.25;;;2.90;;
74293;SDS011;64044;59.904;10.738;2023-12-04T07:25:16;11.15;;;3.28;;
74293;SDS011;64044;59.904;10.738;2023-12-04T07:27:42;8.02;;;3.17;;
74293;SDS011;64044;59.904;10.738;2023-12-04T07:30:08;8.40;;;2.92;;
74293;SDS011;64044;59.904;10.738;2023-12-04T07:32:34;10.32;;;3.30;;
74293;SDS011;64044;59.904;10.738;2023-12-04T07:35:00;7.72;;;3.03;;
74293;SDS011;64044;59.904;10.738;2023-12-04T07:37:26;5.20;;;3.10;;
74293;SDS011;64044;59.904;10.738;2023-12-04T07:39:52;6.80;;;2.90;;
74293;SDS011;64044;59.904;10.738;2023-12-04T07:42:17;8.73;;;2.67;;
74293;SDS011;64044;59.904;10.738;2023-12-04T07:44:43;9.93;;;4.03;;
74293;SDS011;64044;59.904;10.738;2023-12-04T07:47:09;8.27;;;3.75;;
74293;SDS011;64044;59.904;10.738;2023-12-04T07:49:35;4.97;;;3.15;;
74293;SDS011;64044;59.904;10.738;2023-12-04T07:52:00;5.85;;;3.30;;
74293;SDS011;64044;59.904;10.738;2023-12-04T07:54:26;12.68;;;4.00;;
74293;SDS011;64044;59.904;10.738;2023-12-04T07:56:52;12.85;;;3.75;;
74293;SDS011;64044;59.904;10.738;2023-12-04T07:59:18;6.00;;;3.67;;
74293;SDS011;64044;59.904;10.738;2023-12-04T08:01:44;6.32;;;3.83;;
74293;SDS011;64044;59.904;10.738;2023-12-04T08:04:10;13.63;;;4.20;;
74293;SDS011;64044;59.904;10.738;2023-12-04T08:06:36;17.75;;;4.80;;
74293;SDS011;64044;59.904;10.738;2023-12-04T08:09:01;21.58;;;4.32;;
74293;SDS011;64044;59.904;10.738;2023-12-04T08:11:27;11.13;;;4.35;;
74293;SDS011;64044;59.904;10.738;2023-12-04T08:13:53;13.70;;;4.03;;
74293;SDS011;64044;59.904;10.738;2023-12-04T08:16:19;7.25;;;3.78;;
74293;SDS011;64044;59.904;10.738;2023-12-04T08:18:45;9.95;;;3.80;;
74293;SDS011;64044;59.904;10.738;2023-12-04T08:21:11;6.13;;;3.17;;
74293;SDS011;64044;59.904;10.738;2023-12-04T08:23:38;4.78;;;2.55;;
74293;SDS011;64044;59.904;10.738;2023-12-04T08:26:03;6.50;;;2.42;;
74293;SDS011;64044;59.904;10.738;2023-12-04T08:28:29;5.78;;;2.72;;
74293;SDS011;64044;59.904;10.738;2023-12-04T08:30:56;6.43;;;2.72;;
74293;SDS011;64044;59.904;10.738;2023-12-04T08:33:21;4.85;;;2.13;;
74293;SDS011;64044;59.904;10.738;2023-12-04T08:35:47;5.15;;;2.30;;
74293;SDS011;64044;59.904;10.738;2023-12-04T08:38:13;5.53;;;3.00;;
74293;SDS011;64044;59.904;10.738;2023-12-04T08:40:39;4.38;;;2.20;;
74293;SDS011;64044;59.904;10.738;2023-12-04T08:43:05;6.85;;;2.78;;
74293;SDS011;64044;59.904;10.738;2023-12-04T08:45:30;6.55;;;2.70;;
74293;SDS011;64044;59.904;10.738;2023-12-04T08:47:56;6.60;;;3.00;;
74293;SDS011;64044;59.904;10.738;2023-12-04T08:50:22;7.03;;;3.22;;
74293;SDS011;64044;59.904;10.738;2023-12-04T08:52:50;8.98;;;3.70;;
74293;SDS011;64044;59.904;10.738;2023-12-04T08:55:17;11.98;;;3.88;;
74293;SDS011;64044;59.904;10.738;2023-12-04T08:57:42;11.35;;;3.47;;
74293;SDS011;64044;59.904;10.738;2023-12-04T09:00:08;8.63;;;3.28;;
74293;SDS011;64044;59.904;10.738;2023-12-04T09:02:34;9.15;;;4.07;;
74293;SDS011;64044;59.904;10.738;2023-12-04T09:05:00;7.97;;;3.35;;
74293;SDS011;64044;59.904;10.738;2023-12-04T09:07:26;11.15;;;3.47;;
74293;SDS011;64044;59.904;10.738;2023-12-04T09:09:52;7.65;;;3.75;;
74293;SDS011;64044;59.904;10.738;2023-12-04T09:12:17;8.35;;;3.47;;
74293;SDS011;64044;59.904;10.738;2023-12-04T09:14:43;10.00;;;3.83;;
74293;SDS011;64044;59.904;10.738;2023-12-04T09:17:09;11.68;;;3.40;;
74293;SDS011;64044;59.904;10.738;2023-12-04T09:19:35;12.32;;;3.85;;
74293;SDS011;64044;59.904;10.738;2023-12-04T09:22:01;7.68;;;2.92;;
74293;SDS011;64044;59.904;10.738;2023-12-04T09:24:27;7.00;;;3.72;;
74293;SDS011;64044;59.904;10.738;2023-12-04T09:26:53;5.70;;;3.55;;
74293;SDS011;64044;59.904;10.738;2023-12-04T09:29:20;9.93;;;3.95;;
74293;SDS011;64044;59.904;10.738;2023-12-04T09:31:49;8.52;;;3.13;;
74293;SDS011;64044;59.904;10.738;2023-12-04T09:34:16;7.70;;;3.28;;
74293;SDS011;64044;59.904;10.738;2023-12-04T09:36:43;11.32;;;4.22;;
74293;SDS011;64044;59.904;10.738;2023-12-04T09:39:08;8.25;;;3.35;;
74293;SDS011;64044;59.904;10.738;2023-12-04T09:41:35;9.75;;;2.50;;
74293;SDS011;64044;59.904;10.738;2023-12-04T09:44:03;8.18;;;3.17;;
74293;SDS011;64044;59.904;10.738;2023-12-04T09:46:29;10.82;;;3.47;;
74293;SDS011;64044;59.904;10.738;2023-12-04T09:48:55;10.13;;;3.90;;
74293;SDS011;64044;59.904;10.738;2023-12-04T09:51:22;6.38;;;3.17;;
74293;SDS011;64044;59.904;10.738;2023-12-04T09:53:50;7.45;;;3.42;;
74293;SDS011;64044;59.904;10.738;2023-12-04T09:56:17;6.18;;;3.20;;
74293;SDS011;64044;59.904;10.738;2023-12-04T09:58:44;5.75;;;3.17;;
74293;SDS011;64044;59.904;10.738;2023-12-04T10:01:13;12.57;;;4.30;;
74293;SDS011;64044;59.904;10.738;2023-12-04T10:03:38;5.15;;;2.65;;
74293;SDS011;64044;59.904;10.738;2023-12-04T10:06:06;7.05;;;2.88;;
74293;SDS011;64044;59.904;10.738;2023-12-04T10:08:33;5.18;;;2.72;;
74293;SDS011;64044;59.904;10.738;2023-12-04T10:10:59;12.57;;;3.35;;
74293;SDS011;64044;59.904;10.738;2023-12-04T10:13:26;6.43;;;2.95;;
74293;SDS011;64044;59.904;10.738;2023-12-04T10:15:52;7.43;;;2.95;;
74293;SDS011;64044;59.904;10.738;2023-12-04T10:18:29;5.78;;;2.55;;
74293;SDS011;64044;59.904;10.738;2023-12-04T10:20:57;13.52;;;2.75;;
74293;SDS011;64044;59.904;10.738;2023-12-04T10:23:36;6.07;;;3.13;;
74293;SDS011;64044;59.904;10.738;2023-12-04T10:26:08;5.13;;;3.25;;
74293;SDS011;64044;59.904;10.738;2023-12-04T10:28:34;12.73;;;3.25;;
74293;SDS011;64044;59.904;10.738;2023-12-04T10:31:00;5.43;;;2.70;;
74293;SDS011;64044;59.904;10.738;2023-12-04T10:33:28;7.63;;;3.15;;
74293;SDS011;64044;59.904;10.738;2023-12-04T10:35:55;9.70;;;3.58;;
74293;SDS011;64044;59.904;10.738;2023-12-04T10:38:21;8.68;;;3.08;;
74293;SDS011;64044;59.904;10.738;2023-12-04T10:40:48;8.02;;;3.15;;
74293;SDS011;64044;59.904;10.738;2023-12-04T10:43:17;10.05;;;3.53;;
74293;SDS011;64044;59.904;10.738;2023-12-04T10:45:45;10.23;;;3.75;;
74293;SDS011;64044;59.904;10.738;2023-12-04T10:48:12;10.77;;;3.65;;
74293;SDS011;64044;59.904;10.738;2023-12-04T10:50:43;9.63;;;3.15;;
74293;SDS011;64044;59.904;10.738;2023-12-04T10:53:12;8.15;;;3.28;;
74293;SDS011;64044;59.904;10.738;2023-12-04T10:55:39;9.13;;;3.35;;
74293;SDS011;64044;59.904;10.738;2023-12-04T10:58:07;7.45;;;3.42;;
74293;SDS011;64044;59.904;10.738;2023-12-04T11:00:35;6.10;;;3.20;;
74293;SDS011;64044;59.904;10.738;2023-12-04T11:03:07;8.48;;;3.10;;
74293;SDS011;64044;59.904;10.738;2023-12-04T11:05:38;9.43;;;4.13;;
74293;SDS011;64044;59.904;10.738;2023-12-04T11:08:05;8.77;;;3.08;;
74293;SDS011;64044;59.904;10.738;2023-12-04T11:10:33;12.00;;;3.35;;
74293;SDS011;64044;59.904;10.738;2023-12-04T11:13:02;4.70;;;3.03;;
74293;SDS011;64044;59.904;10.738;2023-12-04T11:15:35;6.47;;;3.35;;
74293;SDS011;64044;59.904;10.738;2023-12-04T11:18:09;12.23;;;3.17;;
74293;SDS011;64044;59.904;10.738;2023-12-04T11:20:44;7.18;;;3.47;;
74293;SDS011;64044;59.904;10.738;2023-12-04T11:23:16;6.55;;;3.10;;
74293;SDS011;64044;59.904;10.738;2023-12-04T11:25:42;8.18;;;3.80;;
74293;SDS011;64044;59.904;10.738;2023-12-04T11:28:09;9.13;;;4.07;;
74293;SDS011;64044;59.904;10.738;2023-12-04T11:30:37;10.13;;;3.95;;
74293;SDS011;64044;59.904;10.738;2023-12-04T11:33:04;8.90;;;4.00;;
74293;SDS011;64044;59.904;10.738;2023-12-04T11:35:30;7.65;;;4.13;;
74293;SDS011;64044;59.904;10.738;2023-12-04T11:37:58;6.25;;;3.97;;
74293;SDS011;64044;59.904;10.738;2023-12-04T11:40:24;7.43;;;3.45;;
74293;SDS011;64044;59.904;10.738;2023-12-04T11:42:51;9.95;;;4.75;;
74293;SDS011;64044;59.904;10.738;2023-12-04T11:45:20;6.15;;;3.40;;
74293;SDS011;64044;59.904;10.738;2023-12-04T11:50:15;14.20;;;4.07;;
74293;SDS011;64044;59.904;10.738;2023-12-04T11:52:42;6.43;;;3.88;;
74293;SDS011;64044;59.904;10.738;2023-12-04T11:55:07;7.28;;;3.65;;
74293;SDS011;64044;59.904;10.738;2023-12-04T11:57:40;7.07;;;3.83;;
74293;SDS011;64044;59.904;10.738;2023-12-04T12:00:13;7.82;;;3.80;;
74293;SDS011;64044;59.904;10.738;2023-12-04T12:05:18;7.63;;;3.95;;
74293;SDS011;64044;59.904;10.738;2023-12-04T12:07:45;8.93;;;3.38;;
74293;SDS011;64044;59.904;10.738;2023-12-04T12:10:11;6.70;;;3.45;;
74293;SDS011;64044;59.904;10.738;2023-12-04T12:12:40;7.45;;;4.00;;
74293;SDS011;64044;59.904;10.738;2023-12-04T12:15:10;6.10;;;3.20;;
74293;SDS011;64044;59.904;10.738;2023-12-04T12:17:37;10.68;;;4.13;;
74293;SDS011;64044;59.904;10.738;2023-12-04T12:20:07;9.55;;;3.78;;
74293;SDS011;64044;59.904;10.738;2023-12-04T12:22:34;4.80;;;3.35;;
74293;SDS011;64044;59.904;10.738;2023-12-04T12:25:03;8.35;;;3.65;;
74293;SDS011;64044;59.904;10.738;2023-12-04T12:27:30;12.23;;;4.35;;
74293;SDS011;64044;59.904;10.738;2023-12-04T12:29:56;9.18;;;4.40;;
74293;SDS011;64044;59.904;10.738;2023-12-04T12:32:21;14.15;;;4.10;;
74293;SDS011;64044;59.904;10.738;2023-12-04T12:34:47;17.77;;;6.20;;
74293;SDS011;64044;59.904;10.738;2023-12-04T12:37:13;22.77;;;7.95;;
74293;SDS011;64044;59.904;10.738;2023-12-04T12:39:39;23.80;;;8.35;;
74293;SDS011;64044;59.904;10.738;2023-12-04T12:42:06;14.52;;;5.70;;
74293;SDS011;64044;59.904;10.738;2023-12-04T12:44:39;10.50;;;5.18;;
74293;SDS011;64044;59.904;10.738;2023-12-04T12:47:05;8.98;;;4.47;;
74293;SDS011;64044;59.904;10.738;2023-12-04T12:49:32;11.95;;;4.72;;
74293;SDS011;64044;59.904;10.738;2023-12-04T12:52:00;12.73;;;4.97;;
74293;SDS011;64044;59.904;10.738;2023-12-04T12:54:26;12.40;;;4.10;;
74293;SDS011;64044;59.904;10.738;2023-12-04T12:56:52;8.98;;;4.30;;
74293;SDS011;64044;59.904;10.738;2023-12-04T12:59:43;8.07;;;4.13;;
74293;SDS011;64044;59.904;10.738;2023-12-04T13:02:09;11.50;;;4.32;;
74293;SDS011;64044;59.904;10.738;2023-12-04T13:04:41;9.95;;;4.32;;
74293;SDS011;64044;59.904;10.738;2023-12-04T13:07:08;8.52;;;3.67;;
74293;SDS011;64044;59.904;10.738;2023-12-04T13:09:34;9.43;;;3.70;;
74293;SDS011;64044;59.904;10.738;2023-12-04T13:12:03;9.43;;;4.53;;
74293;SDS011;64044;59.904;10.738;2023-12-04T13:14:30;8.77;;;3.90;;
74293;SDS011;64044;59.904;10.738;2023-12-04T13:16:57;7.53;;;3.78;;
74293;SDS011;64044;59.904;10.738;2023-12-04T13:19:22;6.15;;;3.53;;
74293;SDS011;64044;59.904;10.738;2023-12-04T13:21:49;6.40;;;3.78;;
74293;SDS011;64044;59.904;10.738;2023-12-04T13:24:15;7.03;;;3.55;;
74293;SDS011;64044;59.904;10.738;2023-12-04T13:26:42;8.50;;;3.90;;
74293;SDS011;64044;59.904;10.738;2023-12-04T13:29:08;6.55;;;4.07;;
74293;SDS011;64044;59.904;10.738;2023-12-04T13:31:34;6.43;;;3.47;;
74293;SDS011;64044;59.904;10.738;2023-12-04T13:34:00;6.35;;;3.90;;
74293;SDS011;64044;59.904;10.738;2023-12-04T13:36:26;10.35;;;4.13;;
74293;SDS011;64044;59.904;10.738;2023-12-04T13:38:52;13.90;;;4.80;;
74293;SDS011;64044;59.904;10.738;2023-12-04T13:41:18;17.35;;;4.97;;
74293;SDS011;64044;59.904;10.738;2023-12-04T13:44:02;12.07;;;3.80;;
74293;SDS011;64044;59.904;10.738;2023-12-04T13:46:29;9.75;;;4.10;;
74293;SDS011;64044;59.904;10.738;2023-12-04T13:48:55;10.88;;;4.57;;
74293;SDS011;64044;59.904;10.738;2023-12-04T13:51:21;10.00;;;4.68;;
74293;SDS011;64044;59.904;10.738;2023-12-04T13:53:47;12.77;;;4.75;;
74293;SDS011;64044;59.904;10.738;2023-12-04T13:56:15;10.40;;;4.43;;
74293;SDS011;64044;59.904;10.738;2023-12-04T13:59:11;10.98;;;4.50;;
74293;SDS011;64044;59.904;10.738;2023-12-04T14:01:43;10.20;;;4.20;;
74293;SDS011;64044;59.904;10.738;2023-12-04T14:04:09;9.05;;;4.30;;
74293;SDS011;64044;59.904;10.738;2023-12-04T14:06:35;10.23;;;4.65;;
74293;SDS011;64044;59.904;10.738;2023-12-04T14:09:01;8.35;;;4.22;;
74293;SDS011;64044;59.904;10.738;2023-12-04T14:11:29;9.52;;;4.38;;
74293;SDS011;64044;59.904;10.738;2023-12-04T14:13:55;12.90;;;4.25;;
74293;SDS011;64044;59.904;10.738;2023-12-04T14:16:20;10.27;;;4.47;;
74293;SDS011;64044;59.904;10.738;2023-12-04T14:18:46;10.60;;;5.28;;
74293;SDS011;64044;59.904;10.738;2023-12-04T14:21:12;12.20;;;4.50;;
74293;SDS011;64044;59.904;10.738;2023-12-04T14:23:38;8.55;;;4.38;;
74293;SDS011;64044;59.904;10.738;2023-12-04T14:26:03;13.40;;;4.63;;
74293;SDS011;64044;59.904;10.738;2023-12-04T14:28:29;13.13;;;3.95;;
74293;SDS011;64044;59.904;10.738;2023-12-04T14:30:55;10.13;;;4.32;;
74293;SDS011;64044;59.904;10.738;2023-12-04T14:33:21;8.82;;;4.22;;
74293;SDS011;64044;59.904;10.738;2023-12-04T14:35:47;13.40;;;4.95;;
74293;SDS011;64044;59.904;10.738;2023-12-04T14:38:13;11.43;;;4.45;;